Time,TemperatureF,DewpointF,PressureIn,WindDirection,WindDirectionDegrees,WindSpeedMPH,WindSpeedGustMPH,Humidity,HourlyPrecipIn,Conditions,Clouds,dailyrainin,SoftwareType,DateUTC
2015-05-06 00:05:00,68.8,66.4,30.06,NNE,30,10.0,10.0,92,0.00,,,0.00,Wunderground PWS Mod,2015-05-06 04:05:00,
2015-05-06 00:15:00,68.4,66.3,30.06,NNE,31,11.0,11.0,93,0.00,,,0.00,Wunderground PWS Mod,2015-05-06 04:15:00,
2015-05-06 00:20:00,68.5,66.4,30.05,NNE,23,10.0,10.0,93,0.00,,,0.00,Wunderground PWS Mod,2015-05-06 04:20:00,
2015-05-06 00:25:00,68.6,66.5,30.05,NNE,22,10.0,10.0,93,0.00,,,0.00,Wunderground PWS Mod,2015-05-06 04:25:00,
2015-05-06 00:35:00,68.0,65.9,30.05,NNE,29,10.0,21.0,93,0.00,,,0.00,Wunderground PWS Mod,2015-05-06 04:35:00,
2015-05-06 00:40:00,67.6,65.5,30.05,NE,41,11.0,11.0,93,0.00,,,0.00,Wunderground PWS Mod,2015-05-06 04:40:00,
2015-05-06 00:45:00,67.5,65.4,30.05,NNE,28,11.0,14.0,93,0.00,,,0.01,Wunderground PWS Mod,2015-05-06 04:45:00,
2015-05-06 00:55:00,67.7,65.9,30.05,NNE,28,9.0,15.0,94,0.00,,,0.01,Wunderground PWS Mod,2015-05-06 04:55:00,
2015-05-06 01:00:00,67.9,66.1,30.05,NNE,16,8.0,9.0,94,0.00,,,0.01,Wunderground PWS Mod,2015-05-06 05:00:00,
2015-05-06 01:05:00,68.0,66.2,30.04,NNE,22,6.0,10.0,94,0.00,,,0.02,Wunderground PWS Mod,2015-05-06 05:05:00,
2015-05-06 01:15:00,67.4,65.3,30.04,NNE,13,4.0,13.0,93,0.05,,,0.03,Wunderground PWS Mod,2015-05-06 05:15:00,
2015-05-06 01:25:00,67.6,65.8,30.04,NNE,15,6.0,15.0,94,0.19,,,0.05,Wunderground PWS Mod,2015-05-06 05:25:00,
2015-05-06 01:30:00,67.6,65.8,30.04,NNE,22,7.0,11.0,94,0.13,,,0.06,Wunderground PWS Mod,2015-05-06 05:30:00,
2015-05-06 01:35:00,67.8,66.0,30.03,North,8,6.0,11.0,94,0.10,,,0.07,Wunderground PWS Mod,2015-05-06 05:35:00,
2015-05-06 01:45:00,67.6,65.5,30.03,NNE,26,7.0,7.0,93,0.04,,,0.07,Wunderground PWS Mod,2015-05-06 05:45:00,
2015-05-06 01:50:00,67.2,65.1,30.02,NNE,15,7.0,7.0,93,0.00,,,0.07,Wunderground PWS Mod,2015-05-06 05:50:00,
2015-05-06 01:55:00,67.3,65.5,30.02,NNE,20,4.0,4.0,94,0.00,,,0.08,Wunderground PWS Mod,2015-05-06 05:55:00,
2015-05-06 02:05:00,67.5,65.7,30.02,NNE,12,0.0,3.0,94,0.09,,,0.09,Wunderground PWS Mod,2015-05-06 06:05:00,
2015-05-06 02:10:00,67.4,65.6,30.02,North,357,1.0,1.0,94,0.08,,,0.10,Wunderground PWS Mod,2015-05-06 06:10:00,
2015-05-06 02:15:00,67.2,65.4,30.02,North,357,1.0,1.0,94,0.14,,,0.11,Wunderground PWS Mod,2015-05-06 06:15:00,
2015-05-06 02:20:00,67.1,65.3,30.02,North,357,0.0,0.0,94,0.17,,,0.12,Wunderground PWS Mod,2015-05-06 06:20:00,
2015-05-06 02:25:00,67.2,65.4,30.02,NNE,23,2.0,2.0,94,0.63,,,0.16,Wunderground PWS Mod,2015-05-06 06:25:00,
2015-05-06 02:35:00,66.6,64.8,30.01,North,355,2.0,2.0,94,0.00,,,0.17,Wunderground PWS Mod,2015-05-06 06:35:00,
2015-05-06 02:40:00,66.6,64.8,30.01,North,353,1.0,1.0,94,0.13,,,0.18,Wunderground PWS Mod,2015-05-06 06:40:00,
2015-05-06 02:45:00,66.6,64.8,30.01,NNW,347,0.0,0.0,94,0.15,,,0.20,Wunderground PWS Mod,2015-05-06 06:45:00,
2015-05-06 02:55:00,66.9,65.1,30.00,North,349,1.0,1.0,94,0.16,,,0.23,Wunderground PWS Mod,2015-05-06 06:55:00,
2015-05-06 03:00:00,66.8,65.0,30.00,North,349,1.0,1.0,94,0.14,,,0.24,Wunderground PWS Mod,2015-05-06 07:00:00,
2015-05-06 03:05:00,66.8,65.0,29.99,NNW,337,0.0,0.0,94,0.12,,,0.25,Wunderground PWS Mod,2015-05-06 07:05:00,
2015-05-06 03:15:00,67.0,65.5,29.99,NNW,338,0.0,0.0,95,0.08,,,0.27,Wunderground PWS Mod,2015-05-06 07:15:00,
2015-05-06 03:20:00,67.1,65.6,29.98,NNW,338,0.0,0.0,95,0.08,,,0.27,Wunderground PWS Mod,2015-05-06 07:20:00,
2015-05-06 03:25:00,67.1,65.6,29.98,NNW,337,0.0,0.0,95,0.52,,,0.30,Wunderground PWS Mod,2015-05-06 07:25:00,
2015-05-06 03:35:00,67.3,65.8,29.98,North,11,2.0,6.0,95,0.50,,,0.37,Wunderground PWS Mod,2015-05-06 07:35:00,
2015-05-06 03:40:00,67.4,65.9,29.98,North,354,2.0,2.0,95,0.26,,,0.39,Wunderground PWS Mod,2015-05-06 07:40:00,
2015-05-06 03:45:00,67.3,65.8,29.98,North,0,2.0,2.0,95,0.16,,,0.40,Wunderground PWS Mod,2015-05-06 07:45:00,
2015-05-06 03:55:00,67.3,65.8,29.98,North,349,1.0,1.0,95,0.17,,,0.43,Wunderground PWS Mod,2015-05-06 07:55:00,
2015-05-06 04:00:00,67.2,65.7,29.98,North,349,1.0,1.0,95,0.12,,,0.44,Wunderground PWS Mod,2015-05-06 08:00:00,
2015-05-06 04:05:00,67.2,65.7,29.97,North,349,0.0,0.0,95,0.10,,,0.44,Wunderground PWS Mod,2015-05-06 08:05:00,
2015-05-06 04:15:00,67.1,65.6,29.97,North,349,0.0,0.0,95,0.14,,,0.46,Wunderground PWS Mod,2015-05-06 08:15:00,
2015-05-06 04:20:00,67.2,65.7,29.97,North,349,0.0,1.0,95,0.12,,,0.47,Wunderground PWS Mod,2015-05-06 08:20:00,
2015-05-06 04:30:00,67.1,65.6,29.97,N/A,-737280,0.0,0.0,95,0.20,,,0.48,Wunderground PWS Mod,2015-05-06 08:30:00,
2015-05-06 04:35:00,67.4,65.9,29.96,NNW,347,1.0,1.0,95,0.05,,,0.49,Wunderground PWS Mod,2015-05-06 08:35:00,
2015-05-06 04:40:00,67.5,66.0,29.96,NNW,347,2.0,5.0,95,0.05,,,0.49,Wunderground PWS Mod,2015-05-06 08:40:00,
2015-05-06 04:45:00,67.5,66.0,29.96,NNW,347,2.0,2.0,95,0.04,,,0.49,Wunderground PWS Mod,2015-05-06 08:45:00,
2015-05-06 04:50:00,67.4,65.9,29.96,North,349,2.0,2.0,95,0.00,,,0.49,Wunderground PWS Mod,2015-05-06 08:50:00,
2015-05-06 04:55:00,67.4,65.9,29.96,North,349,1.0,1.0,95,0.00,,,0.49,Wunderground PWS Mod,2015-05-06 08:55:00,
2015-05-06 05:05:00,67.3,65.8,29.96,North,349,0.0,3.0,95,0.00,,,0.49,Wunderground PWS Mod,2015-05-06 09:05:00,
2015-05-06 05:15:00,67.3,65.8,29.96,North,349,0.0,0.0,95,0.00,,,0.49,Wunderground PWS Mod,2015-05-06 09:15:00,
2015-05-06 05:25:00,67.3,65.8,29.96,NNW,348,0.0,0.0,95,0.00,,,0.49,Wunderground PWS Mod,2015-05-06 09:25:00,
2015-05-06 05:35:00,67.3,65.8,29.96,NNW,336,2.0,2.0,95,0.00,,,0.49,Wunderground PWS Mod,2015-05-06 09:35:00,
2015-05-06 05:40:00,67.3,65.8,29.96,NNW,335,2.0,4.0,95,0.00,,,0.50,Wunderground PWS Mod,2015-05-06 09:40:00,
2015-05-06 05:45:00,67.3,65.8,29.96,NNW,335,2.0,4.0,95,0.16,,,0.52,Wunderground PWS Mod,2015-05-06 09:45:00,
2015-05-06 05:55:00,67.3,65.8,29.96,NNW,328,2.0,4.0,95,0.19,,,0.56,Wunderground PWS Mod,2015-05-06 09:55:00,
2015-05-06 06:00:00,67.3,65.8,29.96,N/A,-737280,0.0,0.0,95,0.07,,,0.56,Wunderground PWS Mod,2015-05-06 10:00:00,
2015-05-06 06:10:00,67.3,65.8,29.96,NW,317,3.0,9.0,95,0.09,,,0.58,Wunderground PWS Mod,2015-05-06 10:10:00,
2015-05-06 06:15:00,67.2,65.7,29.96,NW,317,3.0,3.0,95,0.09,,,0.58,Wunderground PWS Mod,2015-05-06 10:15:00,
2015-05-06 06:20:00,67.2,66.0,29.97,NW,314,3.0,5.0,96,0.07,,,0.59,Wunderground PWS Mod,2015-05-06 10:20:00,
2015-05-06 06:25:00,67.3,66.1,29.97,NW,311,4.0,6.0,96,0.07,,,0.59,Wunderground PWS Mod,2015-05-06 10:25:00,
2015-05-06 06:35:00,67.3,66.1,29.97,NW,309,4.0,4.0,96,0.07,,,0.60,Wunderground PWS Mod,2015-05-06 10:35:00,
2015-05-06 06:40:00,67.3,66.1,29.97,NW,304,3.0,3.0,96,0.04,,,0.60,Wunderground PWS Mod,2015-05-06 10:40:00,
2015-05-06 06:45:00,67.4,66.2,29.97,NW,304,4.0,4.0,96,0.00,,,0.60,Wunderground PWS Mod,2015-05-06 10:45:00,
2015-05-06 06:55:00,67.4,66.2,29.97,NW,304,3.0,3.0,96,0.00,,,0.61,Wunderground PWS Mod,2015-05-06 10:55:00,
2015-05-06 07:05:00,67.4,66.2,29.98,NW,304,1.0,5.0,96,0.00,,,0.61,Wunderground PWS Mod,2015-05-06 11:05:00,
2015-05-06 07:15:00,67.5,66.3,29.98,WNW,301,2.0,2.0,96,0.04,,,0.62,Wunderground PWS Mod,2015-05-06 11:15:00,
2015-05-06 07:20:00,67.5,66.3,29.98,WNW,301,2.0,5.0,96,0.04,,,0.62,Wunderground PWS Mod,2015-05-06 11:20:00,
2015-05-06 07:25:00,67.5,66.3,29.98,NW,307,2.0,2.0,96,0.05,,,0.63,Wunderground PWS Mod,2015-05-06 11:25:00,
2015-05-06 07:35:00,67.4,66.2,29.99,NW,320,3.0,3.0,96,0.05,,,0.64,Wunderground PWS Mod,2015-05-06 11:35:00,
2015-05-06 07:45:00,67.4,66.2,29.99,NW,326,2.0,6.0,96,0.05,,,0.64,Wunderground PWS Mod,2015-05-06 11:45:00,
2015-05-06 07:50:00,67.5,66.3,29.99,NW,325,2.0,2.0,96,0.00,,,0.64,Wunderground PWS Mod,2015-05-06 11:50:00,
2015-05-06 08:00:00,67.5,66.3,29.99,NW,315,2.0,7.0,96,0.04,,,0.64,Wunderground PWS Mod,2015-05-06 12:00:00,
2015-05-06 08:05:00,67.7,66.5,29.99,NNW,332,2.0,6.0,96,0.00,,,0.64,Wunderground PWS Mod,2015-05-06 12:05:00,
2015-05-06 08:10:00,67.7,66.5,29.99,NW,320,2.0,4.0,96,0.00,,,0.64,Wunderground PWS Mod,2015-05-06 12:10:00,
2015-05-06 08:15:00,67.6,66.4,29.99,NW,316,3.0,3.0,96,0.00,,,0.64,Wunderground PWS Mod,2015-05-06 12:15:00,
2015-05-06 08:25:00,67.6,66.4,30.00,NW,321,2.0,4.0,96,0.00,,,0.64,Wunderground PWS Mod,2015-05-06 12:25:00,
2015-05-06 08:30:00,67.6,66.4,30.00,NNW,341,2.0,6.0,96,0.00,,,0.64,Wunderground PWS Mod,2015-05-06 12:30:00,
2015-05-06 08:35:00,67.8,66.6,30.00,NNW,331,2.0,2.0,96,0.00,,,0.64,Wunderground PWS Mod,2015-05-06 12:35:00,
2015-05-06 08:45:00,67.9,66.7,30.00,NNW,331,1.0,1.0,96,0.00,,,0.64,Wunderground PWS Mod,2015-05-06 12:45:00,
2015-05-06 08:50:00,68.0,66.8,30.00,NNW,335,2.0,2.0,96,0.00,,,0.64,Wunderground PWS Mod,2015-05-06 12:50:00,
2015-05-06 08:55:00,68.0,66.8,30.00,NW,323,2.0,2.0,96,0.00,,,0.64,Wunderground PWS Mod,2015-05-06 12:55:00,
2015-05-06 09:05:00,68.3,67.1,30.01,NW,323,1.0,1.0,96,0.00,,,0.64,Wunderground PWS Mod,2015-05-06 13:05:00,
2015-05-06 09:15:00,68.7,67.5,30.01,NW,325,1.0,5.0,96,0.00,,,0.64,Wunderground PWS Mod,2015-05-06 13:15:00,
2015-05-06 09:20:00,68.8,67.6,30.02,NNW,327,3.0,6.0,96,0.00,,,0.64,Wunderground PWS Mod,2015-05-06 13:20:00,
2015-05-06 09:30:00,69.1,67.6,30.02,NNW,328,1.0,1.0,95,0.00,,,0.64,Wunderground PWS Mod,2015-05-06 13:30:00,
2015-05-06 09:35:00,69.2,67.7,30.02,NNW,340,2.0,2.0,95,0.00,,,0.64,Wunderground PWS Mod,2015-05-06 13:35:00,
2015-05-06 09:45:00,69.4,67.9,30.02,NW,321,2.0,4.0,95,0.00,,,0.64,Wunderground PWS Mod,2015-05-06 13:45:00,
2015-05-06 09:50:00,69.5,68.0,30.02,NW,321,3.0,3.0,95,0.00,,,0.64,Wunderground PWS Mod,2015-05-06 13:50:00,
2015-05-06 09:55:00,69.9,68.4,30.02,NW,316,2.0,6.0,95,0.00,,,0.64,Wunderground PWS Mod,2015-05-06 13:55:00,
2015-05-06 10:05:00,70.5,68.7,30.02,NW,307,3.0,6.0,94,0.00,,,0.64,Wunderground PWS Mod,2015-05-06 14:05:00,
2015-05-06 10:10:00,71.0,68.9,30.02,WNW,294,5.0,5.0,93,0.00,,,0.64,Wunderground PWS Mod,2015-05-06 14:10:00,
2015-05-06 10:15:00,71.1,68.7,30.02,NW,311,5.0,5.0,92,0.00,,,0.64,Wunderground PWS Mod,2015-05-06 14:15:00,
2015-05-06 10:25:00,71.7,69.3,30.03,NW,305,4.0,4.0,92,0.00,,,0.64,Wunderground PWS Mod,2015-05-06 14:25:00,
2015-05-06 10:35:00,71.6,68.5,30.03,NNW,335,4.0,4.0,90,0.00,,,0.64,Wunderground PWS Mod,2015-05-06 14:35:00,
2015-05-06 10:45:00,71.4,69.0,30.03,WNW,297,4.0,4.0,92,0.00,,,0.64,Wunderground PWS Mod,2015-05-06 14:45:00,
2015-05-06 10:50:00,71.1,68.3,30.04,NW,311,3.0,3.0,91,0.00,,,0.64,Wunderground PWS Mod,2015-05-06 14:50:00,
2015-05-06 11:00:00,71.1,68.7,30.04,NW,315,0.0,1.0,92,0.00,,,0.64,Wunderground PWS Mod,2015-05-06 15:00:00,
2015-05-06 11:05:00,72.3,69.5,30.04,WNW,301,1.0,6.0,91,0.00,,,0.64,Wunderground PWS Mod,2015-05-06 15:05:00,
2015-05-06 11:15:00,72.8,69.4,30.04,WNW,301,2.0,2.0,89,0.00,,,0.64,Wunderground PWS Mod,2015-05-06 15:15:00,
2015-05-06 11:20:00,72.9,69.8,30.04,WNW,292,2.0,4.0,90,0.00,,,0.64,Wunderground PWS Mod,2015-05-06 15:20:00,
2015-05-06 11:30:00,72.9,69.5,30.04,NW,315,6.0,11.0,89,0.00,,,0.64,Wunderground PWS Mod,2015-05-06 15:30:00,
2015-05-06 11:35:00,74.4,69.9,30.04,NNW,327,3.0,7.0,86,0.00,,,0.64,Wunderground PWS Mod,2015-05-06 15:35:00,
2015-05-06 11:40:00,73.4,68.3,30.04,NNW,329,4.0,13.0,84,0.00,,,0.64,Wunderground PWS Mod,2015-05-06 15:40:00,
2015-05-06 11:45:00,72.7,68.6,30.04,North,350,6.0,6.0,87,0.00,,,0.64,Wunderground PWS Mod,2015-05-06 15:45:00,
2015-05-06 11:55:00,71.3,67.9,30.05,NNE,18,7.0,11.0,89,0.00,,,0.64,Wunderground PWS Mod,2015-05-06 15:55:00,
2015-05-06 12:05:00,69.1,66.7,30.05,North,10,6.0,14.0,92,0.00,,,0.65,Wunderground PWS Mod,2015-05-06 16:05:00,
2015-05-06 12:10:00,68.9,66.5,30.05,North,4,4.0,11.0,92,0.00,,,0.65,Wunderground PWS Mod,2015-05-06 16:10:00,
2015-05-06 12:15:00,69.1,67.0,30.05,North,4,2.0,11.0,93,0.00,,,0.65,Wunderground PWS Mod,2015-05-06 16:15:00,
2015-05-06 12:25:00,70.5,68.4,30.05,North,8,1.0,1.0,93,0.00,,,0.65,Wunderground PWS Mod,2015-05-06 16:25:00,
2015-05-06 12:30:00,71.1,69.0,30.05,NE,39,1.0,5.0,93,0.00,,,0.65,Wunderground PWS Mod,2015-05-06 16:30:00,
2015-05-06 12:35:00,71.3,68.5,30.04,NNW,347,2.0,2.0,91,0.00,,,0.65,Wunderground PWS Mod,2015-05-06 16:35:00,
2015-05-06 12:45:00,73.0,69.2,30.04,NNW,347,2.0,2.0,88,0.00,,,0.65,Wunderground PWS Mod,2015-05-06 16:45:00,
2015-05-06 12:50:00,73.6,69.5,30.04,NNW,345,2.0,2.0,87,0.00,,,0.65,Wunderground PWS Mod,2015-05-06 16:50:00,
2015-05-06 12:55:00,74.4,69.9,30.04,NNW,345,2.0,7.0,86,0.00,,,0.65,Wunderground PWS Mod,2015-05-06 16:55:00,
2015-05-06 13:05:00,74.4,69.6,30.03,North,1,4.0,4.0,85,0.00,,,0.65,Wunderground PWS Mod,2015-05-06 17:05:00,
2015-05-06 13:10:00,74.7,69.9,30.03,North,1,3.0,5.0,85,0.00,,,0.65,Wunderground PWS Mod,2015-05-06 17:10:00,
2015-05-06 13:20:00,75.5,69.6,30.03,North,0,6.0,6.0,82,0.00,,,0.65,Wunderground PWS Mod,2015-05-06 17:20:00,
2015-05-06 13:25:00,76.5,69.5,30.03,North,1,5.0,12.0,79,0.00,,,0.65,Wunderground PWS Mod,2015-05-06 17:25:00,
2015-05-06 13:35:00,77.0,68.9,30.02,North,359,3.0,3.0,76,0.00,,,0.65,Wunderground PWS Mod,2015-05-06 17:35:00,
2015-05-06 13:45:00,76.9,69.5,30.02,NNE,29,5.0,10.0,78,0.00,,,0.65,Wunderground PWS Mod,2015-05-06 17:45:00,
2015-05-06 13:50:00,77.1,68.9,30.02,North,8,6.0,6.0,76,0.00,,,0.65,Wunderground PWS Mod,2015-05-06 17:50:00,
2015-05-06 13:55:00,76.7,68.2,30.02,NNE,23,7.0,7.0,75,0.00,,,0.65,Wunderground PWS Mod,2015-05-06 17:55:00,
2015-05-06 14:05:00,77.2,68.7,30.01,North,1,7.0,13.0,75,0.00,,,0.65,Wunderground PWS Mod,2015-05-06 18:05:00,
2015-05-06 14:15:00,77.9,68.1,30.01,NNE,30,7.0,13.0,72,0.00,,,0.65,Wunderground PWS Mod,2015-05-06 18:15:00,
2015-05-06 14:25:00,78.1,67.5,30.01,NNE,18,8.0,9.0,70,0.00,,,0.65,Wunderground PWS Mod,2015-05-06 18:25:00,
2015-05-06 14:30:00,78.9,69.1,30.01,NNE,15,9.0,9.0,72,0.00,,,0.65,Wunderground PWS Mod,2015-05-06 18:30:00,
2015-05-06 14:35:00,79.6,68.1,30.00,North,4,9.0,9.0,68,0.00,,,0.65,Wunderground PWS Mod,2015-05-06 18:35:00,
2015-05-06 14:45:00,80.0,68.5,30.00,NNE,23,8.0,8.0,68,0.00,,,0.65,Wunderground PWS Mod,2015-05-06 18:45:00,
2015-05-06 14:50:00,79.5,68.0,30.00,NNE,27,7.0,14.0,68,0.00,,,0.65,Wunderground PWS Mod,2015-05-06 18:50:00,
2015-05-06 15:00:00,79.2,67.7,30.00,NNE,23,8.0,11.0,68,0.00,,,0.65,Wunderground PWS Mod,2015-05-06 19:00:00,
2015-05-06 15:05:00,78.1,67.5,30.00,NNE,32,10.0,11.0,70,0.00,,,0.65,Wunderground PWS Mod,2015-05-06 19:05:00,
2015-05-06 15:10:00,78.2,67.6,30.00,NNE,16,9.0,12.0,70,0.00,,,0.65,Wunderground PWS Mod,2015-05-06 19:10:00,
2015-05-06 15:15:00,77.9,66.9,30.00,NE,35,9.0,9.0,69,0.00,,,0.65,Wunderground PWS Mod,2015-05-06 19:15:00,
2015-05-06 15:25:00,77.0,66.5,30.00,NNE,14,10.0,13.0,70,0.00,,,0.65,Wunderground PWS Mod,2015-05-06 19:25:00,
2015-05-06 15:30:00,77.0,66.9,30.00,NNE,24,10.0,10.0,71,0.00,,,0.65,Wunderground PWS Mod,2015-05-06 19:30:00,
2015-05-06 15:40:00,77.2,66.7,30.00,North,0,11.0,18.0,70,0.00,,,0.65,Wunderground PWS Mod,2015-05-06 19:40:00,
2015-05-06 15:45:00,77.3,66.7,30.00,NNE,15,12.0,16.0,70,0.00,,,0.65,Wunderground PWS Mod,2015-05-06 19:45:00,
2015-05-06 15:55:00,79.6,67.2,30.00,North,1,8.0,8.0,66,0.00,,,0.65,Wunderground PWS Mod,2015-05-06 19:55:00,
2015-05-06 16:05:00,79.9,66.2,30.00,NNE,29,6.0,13.0,63,0.00,,,0.65,Wunderground PWS Mod,2015-05-06 20:05:00,
2015-05-06 16:10:00,80.1,66.8,30.00,North,359,9.0,9.0,64,0.00,,,0.65,Wunderground PWS Mod,2015-05-06 20:10:00,
2015-05-06 16:15:00,80.8,67.5,30.00,North,10,9.0,9.0,64,0.00,,,0.65,Wunderground PWS Mod,2015-05-06 20:15:00,
2015-05-06 16:25:00,77.5,68.6,30.00,North,0,12.0,12.0,74,0.00,,,0.65,Wunderground PWS Mod,2015-05-06 20:25:00,
2015-05-06 16:35:00,78.7,67.7,30.00,NE,41,6.0,16.0,69,0.00,,,0.65,Wunderground PWS Mod,2015-05-06 20:35:00,
2015-05-06 16:40:00,77.8,67.2,30.00,North,3,8.0,17.0,70,0.00,,,0.65,Wunderground PWS Mod,2015-05-06 20:40:00,
2015-05-06 16:50:00,77.5,68.2,30.01,North,10,11.0,11.0,73,0.00,,,0.65,Wunderground PWS Mod,2015-05-06 20:50:00,
2015-05-06 16:55:00,77.7,67.5,30.01,NNE,20,10.0,16.0,71,0.00,,,0.65,Wunderground PWS Mod,2015-05-06 20:55:00,
2015-05-06 17:00:00,77.7,67.1,30.01,North,5,9.0,13.0,70,0.00,,,0.65,Wunderground PWS Mod,2015-05-06 21:00:00,
2015-05-06 17:10:00,77.4,63.8,30.00,NNE,23,11.0,18.0,63,0.00,,,0.65,Wunderground PWS Mod,2015-05-06 21:10:00,
2015-05-06 17:25:00,77.0,65.2,30.00,North,11,9.0,17.0,67,0.00,,,0.65,Wunderground PWS Mod,2015-05-06 21:25:00,
2015-05-06 17:35:00,76.3,65.4,30.00,North,1,11.0,11.0,69,0.00,,,0.65,Wunderground PWS Mod,2015-05-06 21:35:00,
2015-05-06 17:45:00,76.0,65.5,30.00,North,11,11.0,11.0,70,0.00,,,0.65,Wunderground PWS Mod,2015-05-06 21:45:00,
2015-05-06 17:55:00,75.8,64.5,30.00,NNE,18,11.0,11.0,68,0.00,,,0.65,Wunderground PWS Mod,2015-05-06 21:55:00,
2015-05-06 18:00:00,75.9,65.0,30.00,NE,37,10.0,15.0,69,0.00,,,0.65,Wunderground PWS Mod,2015-05-06 22:00:00,
2015-05-06 18:05:00,75.7,64.8,30.01,North,1,9.0,9.0,69,0.00,,,0.66,Wunderground PWS Mod,2015-05-06 22:05:00,
2015-05-06 18:15:00,75.5,65.0,30.01,NE,34,8.0,8.0,70,0.00,,,0.66,Wunderground PWS Mod,2015-05-06 22:15:00,
2015-05-06 18:20:00,75.7,65.6,30.01,NNE,14,6.0,6.0,71,0.00,,,0.66,Wunderground PWS Mod,2015-05-06 22:20:00,
2015-05-06 18:30:00,75.4,65.3,30.01,North,1,5.0,5.0,71,0.00,,,0.66,Wunderground PWS Mod,2015-05-06 22:30:00,
2015-05-06 18:35:00,75.2,65.6,30.00,NNE,23,5.0,9.0,72,0.00,,,0.66,Wunderground PWS Mod,2015-05-06 22:35:00,
2015-05-06 18:45:00,74.8,65.6,30.00,NNE,23,7.0,11.0,73,0.00,,,0.66,Wunderground PWS Mod,2015-05-06 22:45:00,
2015-05-06 18:50:00,74.7,65.5,30.01,NNE,16,5.0,5.0,73,0.00,,,0.66,Wunderground PWS Mod,2015-05-06 22:50:00,
2015-05-06 18:55:00,74.7,65.9,30.01,NNE,20,3.0,6.0,74,0.00,,,0.66,Wunderground PWS Mod,2015-05-06 22:55:00,
2015-05-06 19:05:00,74.4,65.6,30.01,NNE,16,4.0,10.0,74,0.00,,,0.66,Wunderground PWS Mod,2015-05-06 23:05:00,
2015-05-06 19:10:00,74.1,65.3,30.01,North,5,4.0,4.0,74,0.00,,,0.66,Wunderground PWS Mod,2015-05-06 23:10:00,
2015-05-06 19:20:00,74.0,65.2,30.01,North,0,2.0,10.0,74,0.00,,,0.66,Wunderground PWS Mod,2015-05-06 23:20:00,
2015-05-06 19:25:00,74.0,66.7,30.01,North,9,4.0,4.0,78,0.00,,,0.66,Wunderground PWS Mod,2015-05-06 23:25:00,
2015-05-06 19:30:00,73.6,66.3,30.01,NNE,22,4.0,6.0,78,0.00,,,0.66,Wunderground PWS Mod,2015-05-06 23:30:00,
2015-05-06 19:35:00,73.5,66.6,30.01,NNE,12,2.0,2.0,79,0.00,,,0.66,Wunderground PWS Mod,2015-05-06 23:35:00,
2015-05-06 19:45:00,73.2,66.3,30.01,NNE,12,0.0,0.0,79,0.00,,,0.66,Wunderground PWS Mod,2015-05-06 23:45:00,
2015-05-06 19:50:00,73.0,66.5,30.00,NNE,12,0.0,2.0,80,0.00,,,0.66,Wunderground PWS Mod,2015-05-06 23:50:00,
2015-05-06 19:55:00,72.7,66.2,30.00,NNE,12,0.0,0.0,80,0.00,,,0.66,Wunderground PWS Mod,2015-05-06 23:55:00,
2015-05-06 20:05:00,72.5,66.0,30.00,NNE,12,0.0,0.0,80,0.00,,,0.66,Wunderground PWS Mod,2015-05-07 00:05:00,
2015-05-06 20:10:00,72.3,65.8,30.00,NNE,12,0.0,0.0,80,0.00,,,0.66,Wunderground PWS Mod,2015-05-07 00:10:00,
2015-05-06 20:15:00,72.1,65.6,30.00,NNE,12,0.0,0.0,80,0.00,,,0.66,Wunderground PWS Mod,2015-05-07 00:15:00,
2015-05-06 20:20:00,72.0,65.5,30.00,NNE,12,0.0,0.0,80,0.00,,,0.66,Wunderground PWS Mod,2015-05-07 00:20:00,
2015-05-06 20:25:00,71.6,65.5,30.00,NNE,12,0.0,0.0,81,0.00,,,0.66,Wunderground PWS Mod,2015-05-07 00:25:00,
2015-05-06 20:35:00,70.7,65.6,30.02,NNE,12,0.0,0.0,84,0.00,,,0.66,Wunderground PWS Mod,2015-05-07 00:35:00,
2015-05-06 20:40:00,70.7,65.6,30.02,NNE,12,0.0,0.0,84,0.00,,,0.66,Wunderground PWS Mod,2015-05-07 00:40:00,
2015-05-06 20:45:00,70.7,65.6,30.02,NNE,12,0.0,0.0,84,0.00,,,0.66,Wunderground PWS Mod,2015-05-07 00:45:00,
2015-05-06 20:55:00,70.8,65.4,30.02,NNE,12,0.0,0.0,83,0.00,,,0.66,Wunderground PWS Mod,2015-05-07 00:55:00,
2015-05-06 21:00:00,70.7,65.3,30.02,NNE,12,0.0,0.0,83,0.00,,,0.66,Wunderground PWS Mod,2015-05-07 01:00:00,
2015-05-06 21:05:00,70.6,65.5,30.02,NNE,12,0.0,0.0,84,0.00,,,0.66,Wunderground PWS Mod,2015-05-07 01:05:00,
2015-05-06 21:15:00,70.6,65.5,30.02,NNE,12,0.0,0.0,84,0.00,,,0.66,Wunderground PWS Mod,2015-05-07 01:15:00,
2015-05-06 21:20:00,70.3,65.2,30.03,NNE,12,0.0,0.0,84,0.00,,,0.66,Wunderground PWS Mod,2015-05-07 01:20:00,
2015-05-06 21:25:00,69.9,65.5,30.03,NNE,12,0.0,0.0,86,0.00,,,0.66,Wunderground PWS Mod,2015-05-07 01:25:00,
2015-05-06 21:35:00,70.1,65.7,30.04,NNE,12,0.0,0.0,86,0.00,,,0.66,Wunderground PWS Mod,2015-05-07 01:35:00,
2015-05-06 21:40:00,70.0,65.6,30.04,NNE,12,0.0,0.0,86,0.00,,,0.66,Wunderground PWS Mod,2015-05-07 01:40:00,
2015-05-06 21:45:00,69.8,65.4,30.04,NNE,12,0.0,0.0,86,0.00,,,0.66,Wunderground PWS Mod,2015-05-07 01:45:00,
2015-05-06 21:55:00,69.5,65.5,30.04,NNE,12,0.0,0.0,87,0.00,,,0.66,Wunderground PWS Mod,2015-05-07 01:55:00,
2015-05-06 22:00:00,69.3,65.6,30.04,NNE,12,0.0,0.0,88,0.00,,,0.66,Wunderground PWS Mod,2015-05-07 02:00:00,
2015-05-06 22:05:00,69.5,65.5,30.04,NNE,12,0.0,0.0,87,0.00,,,0.66,Wunderground PWS Mod,2015-05-07 02:05:00,
2015-05-06 22:15:00,69.5,65.5,30.04,NNE,12,0.0,0.0,87,0.00,,,0.66,Wunderground PWS Mod,2015-05-07 02:15:00,
2015-05-06 22:20:00,69.6,65.6,30.04,NNE,12,0.0,0.0,87,0.00,,,0.66,Wunderground PWS Mod,2015-05-07 02:20:00,
2015-05-06 22:30:00,69.5,65.5,30.03,N/A,-737280,0.0,0.0,87,0.00,,,0.66,Wunderground PWS Mod,2015-05-07 02:30:00,
2015-05-06 22:40:00,68.6,65.2,30.04,N/A,-737280,0.0,0.0,89,0.00,,,0.66,Wunderground PWS Mod,2015-05-07 02:40:00,
2015-05-06 22:45:00,68.4,65.0,30.04,NNE,12,0.0,0.0,89,0.00,,,0.66,Wunderground PWS Mod,2015-05-07 02:45:00,
2015-05-06 22:50:00,68.2,64.8,30.05,NNE,12,0.0,0.0,89,0.00,,,0.66,Wunderground PWS Mod,2015-05-07 02:50:00,
2015-05-06 22:55:00,68.0,64.6,30.05,NNE,12,0.0,0.0,89,0.00,,,0.66,Wunderground PWS Mod,2015-05-07 02:55:00,
2015-05-06 23:05:00,67.7,64.7,30.04,NNE,12,0.0,0.0,90,0.00,,,0.66,Wunderground PWS Mod,2015-05-07 03:05:00,
2015-05-06 23:10:00,67.8,64.8,30.04,NNE,12,0.0,0.0,90,0.00,,,0.66,Wunderground PWS Mod,2015-05-07 03:10:00,
2015-05-06 23:15:00,68.0,64.6,30.04,NNE,12,0.0,0.0,89,0.00,,,0.66,Wunderground PWS Mod,2015-05-07 03:15:00,